createdAt,value
2022-11-16T00:01:45.392Z,12.50
2022-11-16T00:04:12.447Z,12.40
2022-11-16T00:06:40.006Z,12.40
2022-11-16T00:09:22.590Z,12.40
2022-11-16T00:12:01.375Z,12.30
2022-11-16T00:14:31.159Z,12.30
2022-11-16T00:16:58.716Z,12.30
2022-11-16T00:19:26.460Z,12.30
2022-11-16T00:21:54.170Z,12.20
2022-11-16T00:24:22.464Z,12.20
2022-11-16T00:26:50.048Z,12.10
2022-11-16T00:29:19.474Z,12.10
2022-11-16T00:31:47.242Z,12.10
2022-11-16T00:34:14.839Z,12.10
2022-11-16T00:36:42.019Z,12.10
2022-11-16T00:39:11.788Z,12.10
2022-11-16T00:41:38.848Z,12.10
2022-11-16T00:44:05.825Z,12.00
2022-11-16T00:46:32.793Z,12.00
2022-11-16T00:48:59.722Z,12.00
2022-11-16T00:51:26.997Z,12.00
2022-11-16T00:53:53.876Z,12.00
2022-11-16T00:56:21.774Z,11.90
2022-11-16T00:58:48.731Z,11.90
2022-11-16T01:01:16.377Z,11.90
2022-11-16T01:03:43.300Z,11.90
2022-11-16T01:06:12.477Z,11.90
2022-11-16T01:08:40.622Z,11.90
2022-11-16T01:11:27.332Z,11.80
2022-11-16T01:13:55.228Z,11.80
2022-11-16T01:16:23.457Z,11.80
2022-11-16T01:18:52.444Z,11.80
2022-11-16T01:21:20.098Z,11.80
2022-11-16T01:23:47.074Z,11.80
2022-11-16T01:26:14.187Z,11.80
2022-11-16T01:28:42.644Z,11.80
2022-11-16T01:31:11.371Z,11.80
2022-11-16T01:33:38.726Z,11.80
2022-11-16T01:36:14.257Z,11.80
2022-11-16T01:38:45.665Z,11.80
2022-11-16T01:41:16.922Z,11.80
2022-11-16T01:43:58.152Z,11.70
2022-11-16T01:46:30.275Z,11.70
2022-11-16T01:49:05.319Z,11.70
2022-11-16T01:51:33.327Z,11.70
2022-11-16T01:54:02.602Z,11.70
2022-11-16T01:56:32.340Z,11.70
2022-11-16T01:59:09.440Z,11.70
2022-11-16T02:01:36.426Z,11.70
2022-11-16T02:04:04.883Z,11.60
2022-11-16T02:06:39.086Z,11.70
2022-11-16T02:09:40.471Z,11.60
2022-11-16T02:12:41.890Z,11.60
2022-11-16T02:15:30.056Z,11.60
2022-11-16T02:18:31.546Z,11.60
2022-11-16T02:21:21.263Z,11.50
2022-11-16T02:24:06.482Z,11.50
2022-11-16T02:26:45.572Z,11.60
2022-11-16T02:29:12.397Z,11.50
2022-11-16T02:31:46.973Z,11.50
2022-11-16T02:34:17.921Z,11.60
2022-11-16T02:36:47.339Z,11.60
2022-11-16T02:39:18.658Z,11.60
2022-11-16T02:41:48.703Z,11.60
2022-11-16T02:44:24.679Z,11.60
2022-11-16T02:46:57.867Z,11.60
2022-11-16T02:49:27.006Z,11.50
2022-11-16T02:51:55.367Z,11.50
2022-11-16T02:54:24.540Z,11.60
2022-11-16T02:57:02.815Z,11.60
2022-11-16T02:59:41.564Z,11.60
2022-11-16T03:02:26.837Z,11.60
2022-11-16T03:05:33.612Z,11.60
2022-11-16T03:08:13.715Z,11.60
2022-11-16T03:11:02.646Z,11.60
2022-11-16T03:13:33.446Z,11.60
2022-11-16T03:16:02.987Z,11.60
2022-11-16T03:18:31.781Z,11.60
2022-11-16T03:21:19.367Z,11.60
2022-11-16T03:23:46.746Z,11.60
2022-11-16T03:26:16.420Z,11.60
2022-11-16T03:28:51.691Z,11.70
2022-11-16T03:31:27.867Z,11.60
2022-11-16T03:33:58.243Z,11.60
2022-11-16T03:36:33.926Z,11.60
2022-11-16T03:39:20.370Z,11.60
2022-11-16T03:41:48.549Z,11.60
2022-11-16T03:44:17.306Z,11.60
2022-11-16T03:46:46.631Z,11.60
2022-11-16T03:49:14.740Z,11.60
2022-11-16T03:51:42.721Z,11.60
2022-11-16T03:54:09.771Z,11.60
2022-11-16T03:56:36.731Z,11.60
2022-11-16T03:59:03.707Z,11.60
2022-11-16T04:01:31.662Z,11.60
2022-11-16T04:03:59.948Z,11.60
2022-11-16T04:06:45.573Z,11.50
2022-11-16T04:09:31.286Z,11.50
2022-11-16T04:12:17.172Z,11.50
2022-11-16T04:15:03.214Z,11.50
2022-11-16T04:17:51.378Z,11.50
2022-11-16T04:20:36.779Z,11.50
2022-11-16T04:23:26.993Z,11.50
2022-11-16T04:25:54.113Z,11.50
2022-11-16T04:28:27.068Z,11.50
2022-11-16T04:31:21.832Z,11.50
2022-11-16T04:34:14.266Z,11.50
2022-11-16T04:37:04.724Z,11.60
2022-11-16T04:39:31.954Z,11.60
2022-11-16T04:42:14.544Z,11.50
2022-11-16T04:45:01.613Z,11.50
2022-11-16T04:47:34.538Z,11.50
2022-11-16T04:50:02.596Z,11.50
2022-11-16T04:52:29.514Z,11.50
2022-11-16T04:54:56.535Z,11.50
2022-11-16T04:57:23.784Z,11.50
2022-11-16T04:59:50.968Z,11.50
2022-11-16T05:02:17.909Z,11.50
2022-11-16T05:04:57.098Z,11.50
2022-11-16T05:07:25.362Z,11.50
2022-11-16T05:09:57.540Z,11.50
2022-11-16T05:12:27.974Z,11.50
2022-11-16T05:14:58.863Z,11.50
2022-11-16T05:17:28.850Z,11.50
2022-11-16T05:20:16.624Z,11.50
2022-11-16T05:22:55.001Z,11.50
2022-11-16T05:25:23.580Z,11.50
2022-11-16T05:27:50.876Z,11.40
2022-11-16T05:30:18.095Z,11.40
2022-11-16T05:32:45.101Z,11.40
2022-11-16T05:35:13.611Z,11.40
2022-11-16T05:37:40.501Z,11.40
2022-11-16T05:40:07.979Z,11.40
2022-11-16T05:42:41.923Z,11.40
2022-11-16T05:45:09.374Z,11.40
2022-11-16T05:47:36.327Z,11.40
2022-11-16T05:50:03.997Z,11.40
2022-11-16T05:52:35.992Z,11.40
2022-11-16T05:55:07.394Z,11.40
2022-11-16T05:57:40.724Z,11.40
2022-11-16T06:00:08.583Z,11.30
2022-11-16T06:02:42.191Z,11.30
2022-11-16T06:05:16.601Z,11.30
2022-11-16T06:07:43.641Z,11.30
2022-11-16T06:10:10.871Z,11.30
2022-11-16T06:12:38.821Z,11.30
2022-11-16T06:15:06.436Z,11.30
2022-11-16T06:17:33.824Z,11.30
2022-11-16T06:20:01.345Z,11.20
2022-11-16T06:22:28.240Z,11.20
2022-11-16T06:24:55.283Z,11.20
2022-11-16T06:27:22.274Z,11.20
2022-11-16T06:29:49.933Z,11.20
2022-11-16T06:32:16.882Z,11.20
2022-11-16T06:34:43.754Z,11.10
2022-11-16T06:37:11.898Z,11.10
2022-11-16T06:39:38.842Z,11.10
2022-11-16T06:42:05.767Z,11.10
2022-11-16T06:44:32.747Z,11.10
2022-11-16T06:47:02.929Z,11.10
2022-11-16T06:49:30.155Z,11.10
2022-11-16T06:52:00.923Z,11.10
2022-11-16T06:54:27.874Z,11.10
2022-11-16T06:56:55.034Z,11.10
2022-11-16T06:59:21.979Z,11.10
2022-11-16T07:01:49.741Z,11.10
2022-11-16T07:04:16.973Z,11.00
2022-11-16T07:06:50.185Z,11.00
2022-11-16T07:09:18.352Z,11.10
2022-11-16T07:11:45.341Z,11.00
2022-11-16T07:14:14.185Z,11.00
2022-11-16T07:16:41.976Z,11.10
2022-11-16T07:19:10.275Z,11.00
2022-11-16T07:21:38.497Z,11.00
2022-11-16T07:24:09.406Z,11.00
2022-11-16T07:26:36.348Z,11.00
2022-11-16T07:29:08.992Z,11.10
2022-11-16T07:31:40.254Z,11.10
2022-11-16T07:34:23.513Z,11.10
2022-11-16T07:37:00.911Z,11.00
2022-11-16T07:39:27.851Z,11.00
2022-11-16T07:41:55.376Z,11.00
2022-11-16T07:44:44.682Z,11.00
2022-11-16T07:47:11.567Z,10.90
2022-11-16T07:49:38.564Z,10.90
2022-11-16T07:52:15.555Z,10.80
2022-11-16T07:55:01.663Z,10.80
2022-11-16T07:57:31.046Z,10.80
2022-11-16T08:00:01.299Z,10.80
2022-11-16T08:02:40.565Z,10.80
2022-11-16T08:05:10.780Z,10.70
2022-11-16T08:07:39.259Z,10.70
2022-11-16T08:10:15.158Z,10.70
2022-11-16T08:12:42.173Z,10.70
2022-11-16T08:15:09.570Z,10.70
2022-11-16T08:17:36.411Z,10.60
2022-11-16T08:20:05.808Z,10.60
2022-11-16T08:22:32.593Z,10.60
2022-11-16T08:24:59.580Z,10.60
2022-11-16T08:27:26.732Z,10.50
2022-11-16T08:29:56.127Z,10.60
2022-11-16T08:32:23.077Z,10.60
2022-11-16T08:34:50.155Z,10.60
2022-11-16T08:37:17.131Z,10.60
2022-11-16T08:39:45.220Z,10.60
2022-11-16T08:42:12.238Z,10.60
2022-11-16T08:44:42.797Z,10.70
2022-11-16T08:47:13.609Z,10.70
2022-11-16T08:49:49.654Z,10.70
2022-11-16T08:52:18.486Z,10.80
2022-11-16T08:54:45.529Z,10.80
2022-11-16T08:57:12.463Z,10.80
2022-11-16T08:59:41.636Z,10.80
2022-11-16T09:02:12.689Z,10.90
2022-11-16T09:04:39.818Z,10.90
2022-11-16T09:07:06.789Z,10.90
2022-11-16T09:09:33.743Z,10.90
2022-11-16T09:12:00.692Z,10.90
2022-11-16T09:14:28.958Z,10.90
2022-11-16T09:16:55.888Z,10.90
2022-11-16T09:19:22.799Z,10.90
2022-11-16T09:21:50.368Z,10.90
2022-11-16T09:24:17.378Z,10.90
2022-11-16T09:26:44.323Z,10.90
2022-11-16T09:29:13.193Z,10.90
2022-11-16T09:31:40.853Z,10.90
2022-11-16T09:34:08.121Z,10.90
2022-11-16T09:36:35.203Z,10.90
2022-11-16T09:39:29.553Z,11.00
2022-11-16T09:42:12.039Z,10.90
2022-11-16T09:44:38.871Z,10.90
2022-11-16T09:47:14.422Z,10.90
2022-11-16T09:49:47.219Z,11.00
2022-11-16T09:52:33.007Z,11.00
2022-11-16T09:55:03.683Z,11.00
2022-11-16T09:57:36.123Z,11.10
2022-11-16T10:00:13.644Z,11.20
2022-11-16T10:02:48.379Z,11.20
2022-11-16T10:05:36.381Z,11.20
2022-11-16T10:08:40.982Z,11.30
2022-11-16T10:11:19.636Z,11.30
2022-11-16T10:14:23.171Z,11.30
2022-11-16T10:17:14.529Z,11.40
2022-11-16T10:20:04.904Z,11.40
2022-11-16T10:22:38.631Z,11.40
2022-11-16T10:25:33.073Z,11.40
2022-11-16T10:28:14.757Z,11.40
2022-11-16T10:30:57.304Z,11.30
2022-11-16T10:33:26.754Z,11.30
2022-11-16T10:35:54.124Z,11.30
2022-11-16T10:38:25.197Z,11.40
2022-11-16T10:41:01.088Z,11.50
2022-11-16T10:43:31.335Z,11.60
2022-11-16T10:46:16.538Z,11.70
2022-11-16T10:49:02.290Z,11.70
2022-11-16T10:51:29.304Z,11.80
2022-11-16T10:53:57.118Z,11.80
2022-11-16T10:56:28.124Z,11.80
2022-11-16T10:58:59.233Z,11.80
2022-11-16T11:01:34.003Z,11.80
2022-11-16T11:04:23.563Z,11.90
2022-11-16T11:06:55.856Z,11.90
2022-11-16T11:09:25.567Z,11.90
2022-11-16T11:12:23.627Z,11.90
2022-11-16T11:15:11.522Z,12.00
2022-11-16T11:17:42.071Z,12.10
2022-11-16T11:20:15.243Z,12.10
2022-11-16T11:22:58.160Z,12.10
2022-11-16T11:25:32.342Z,12.10
2022-11-16T11:28:24.478Z,12.20
2022-11-16T11:31:26.005Z,12.20
2022-11-16T11:34:17.687Z,12.30
2022-11-16T11:36:59.696Z,12.30
2022-11-16T11:39:33.233Z,12.30
2022-11-16T11:42:13.885Z,12.30
2022-11-16T11:44:44.743Z,12.30
2022-11-16T11:47:55.609Z,12.30
2022-11-16T11:50:22.378Z,12.40
2022-11-16T11:52:59.254Z,12.40
2022-11-16T11:55:26.432Z,12.30
2022-11-16T11:57:53.928Z,12.30
2022-11-16T12:00:21.352Z,12.20
2022-11-16T12:03:06.902Z,12.20
2022-11-16T12:05:41.185Z,12.20
2022-11-16T12:08:30.043Z,12.10
2022-11-16T12:11:26.854Z,12.00
2022-11-16T12:14:02.446Z,12.00
2022-11-16T12:16:36.756Z,12.10
2022-11-16T12:19:17.907Z,12.10
2022-11-16T12:22:09.860Z,12.10
2022-11-16T12:24:52.516Z,12.20
2022-11-16T12:27:30.606Z,12.20
2022-11-16T12:30:09.387Z,12.20
2022-11-16T12:33:00.660Z,12.30
2022-11-16T12:35:38.230Z,12.30
2022-11-16T12:38:26.528Z,12.30
2022-11-16T12:41:08.308Z,12.50
2022-11-16T12:43:45.102Z,12.60
2022-11-16T12:46:40.373Z,12.60
2022-11-16T12:49:43.969Z,12.70
2022-11-16T12:52:16.871Z,12.80
2022-11-16T12:55:24.150Z,12.80
2022-11-16T12:58:03.722Z,12.90
2022-11-16T13:00:54.377Z,12.90
2022-11-16T13:03:35.456Z,12.90
2022-11-16T13:06:08.459Z,12.90
2022-11-16T13:09:06.153Z,12.90
2022-11-16T13:11:39.657Z,13.00
2022-11-16T13:14:35.168Z,13.00
2022-11-16T13:17:04.095Z,13.10
2022-11-16T13:19:32.099Z,13.20
2022-11-16T13:22:07.495Z,13.20
2022-11-16T13:24:53.263Z,13.10
2022-11-16T13:27:34.762Z,13.00
2022-11-16T13:30:23.029Z,13.10
2022-11-16T13:32:55.956Z,13.10
2022-11-16T13:35:23.941Z,13.10
2022-11-16T13:37:52.137Z,13.10
2022-11-16T13:40:33.410Z,13.10
2022-11-16T13:43:12.018Z,13.10
2022-11-16T13:45:54.742Z,13.10
2022-11-16T13:48:30.831Z,13.00
2022-11-16T13:51:03.961Z,12.90
2022-11-16T13:54:37.901Z,12.80
2022-11-16T13:56:28.974Z,12.70
2022-11-16T13:58:58.253Z,12.60
2022-11-16T14:01:26.552Z,12.60
2022-11-16T14:04:32.030Z,12.50
2022-11-16T14:07:00.190Z,12.50
2022-11-16T14:09:44.890Z,12.50
2022-11-16T14:12:48.890Z,12.40
2022-11-16T14:15:21.004Z,12.40
2022-11-16T14:17:59.661Z,12.40
2022-11-16T14:20:30.842Z,12.50
2022-11-16T14:23:22.387Z,12.60
2022-11-16T14:26:13.644Z,12.60
2022-11-16T14:28:58.860Z,12.60
2022-11-16T14:31:29.616Z,12.70
2022-11-16T14:33:59.405Z,12.70
2022-11-16T14:36:44.284Z,12.70
2022-11-16T14:39:23.665Z,12.70
2022-11-16T14:41:51.095Z,12.50
2022-11-16T14:44:19.694Z,12.50
2022-11-16T14:46:46.733Z,12.40
2022-11-16T14:49:16.747Z,12.40
2022-11-16T14:51:51.300Z,12.50
2022-11-16T14:54:30.095Z,12.50
2022-11-16T14:57:02.016Z,12.50
2022-11-16T14:59:30.217Z,12.40
2022-11-16T15:02:00.247Z,12.30
2022-11-16T15:04:27.629Z,12.20
2022-11-16T15:07:05.288Z,12.10
2022-11-16T15:09:39.309Z,12.00
2022-11-16T15:12:32.716Z,12.00
2022-11-16T15:15:07.648Z,11.90
2022-11-16T15:17:35.278Z,11.80
2022-11-16T15:20:14.585Z,11.80
2022-11-16T15:22:45.231Z,11.80
2022-11-16T15:25:26.428Z,11.80
2022-11-16T15:27:54.911Z,11.80
2022-11-16T15:30:27.925Z,11.70
2022-11-16T15:32:55.134Z,11.70
2022-11-16T15:35:25.010Z,11.70
2022-11-16T15:38:27.099Z,11.60
2022-11-16T15:41:02.839Z,11.60
2022-11-16T15:43:49.673Z,11.50
2022-11-16T15:46:24.853Z,11.40
2022-11-16T15:48:52.931Z,11.40
2022-11-16T15:51:24.305Z,11.20
2022-11-16T15:53:53.524Z,11.10
2022-11-16T15:56:27.897Z,11.00
2022-11-16T15:59:01.253Z,11.00
2022-11-16T16:01:31.073Z,10.90
2022-11-16T16:04:06.152Z,10.90
2022-11-16T16:06:47.831Z,10.80
2022-11-16T16:09:23.340Z,10.80
2022-11-16T16:11:50.827Z,10.80
2022-11-16T16:14:28.313Z,10.70
2022-11-16T16:17:00.451Z,10.70
2022-11-16T16:19:30.032Z,10.70
2022-11-16T16:21:59.274Z,10.70
2022-11-16T16:24:41.467Z,10.70
2022-11-16T16:27:17.531Z,10.60
2022-11-16T16:29:46.275Z,10.60
2022-11-16T16:32:16.077Z,10.60
2022-11-16T16:34:43.111Z,10.60
2022-11-16T16:37:15.486Z,10.60
2022-11-16T16:39:42.746Z,10.50
2022-11-16T16:42:12.719Z,10.50
2022-11-16T16:44:40.704Z,10.50
2022-11-16T16:47:08.144Z,10.50
2022-11-16T16:49:35.021Z,10.50
2022-11-16T16:52:02.666Z,10.40
2022-11-16T16:54:29.721Z,10.40
2022-11-16T16:56:57.379Z,10.40
2022-11-16T16:59:24.930Z,10.40
2022-11-16T17:01:51.716Z,10.40
2022-11-16T17:04:18.772Z,10.40
2022-11-16T17:06:46.700Z,10.40
2022-11-16T17:09:14.064Z,10.40
2022-11-16T17:11:40.980Z,10.40
2022-11-16T17:14:08.171Z,10.50
2022-11-16T17:16:35.701Z,10.40
2022-11-16T17:19:03.021Z,10.40
2022-11-16T17:21:31.007Z,10.40
2022-11-16T17:23:58.151Z,10.40
2022-11-16T17:26:29.087Z,10.40
2022-11-16T17:28:57.346Z,10.40
2022-11-16T17:31:25.746Z,10.30
2022-11-16T17:33:52.867Z,10.30
2022-11-16T17:36:20.622Z,10.30
2022-11-16T17:38:47.577Z,10.30
2022-11-16T17:41:25.485Z,10.20
2022-11-16T17:43:53.488Z,10.20
2022-11-16T17:46:23.380Z,10.20
2022-11-16T17:48:50.771Z,10.20
2022-11-16T17:51:20.123Z,10.10
2022-11-16T17:53:49.090Z,10.10
2022-11-16T17:56:18.642Z,10.10
2022-11-16T17:58:45.611Z,10.00
2022-11-16T18:01:13.713Z,9.90
2022-11-16T18:03:40.934Z,9.90
2022-11-16T18:06:13.865Z,9.90
2022-11-16T18:08:41.822Z,9.90
2022-11-16T18:11:11.667Z,9.80
2022-11-16T18:13:39.256Z,9.80
2022-11-16T18:16:07.078Z,9.80
2022-11-16T18:18:34.234Z,9.80
2022-11-16T18:21:01.889Z,9.80
2022-11-16T18:23:29.134Z,9.70
2022-11-16T18:25:56.300Z,9.70
2022-11-16T18:28:23.308Z,9.70
2022-11-16T18:30:50.661Z,9.60
2022-11-16T18:33:18.458Z,9.60
2022-11-16T18:35:45.360Z,9.60
2022-11-16T18:38:13.066Z,9.50
2022-11-16T18:40:40.391Z,9.50
2022-11-16T18:43:12.422Z,9.50
2022-11-16T18:45:39.338Z,9.40
2022-11-16T18:48:06.966Z,9.40
2022-11-16T18:50:33.867Z,9.30
2022-11-16T18:53:00.776Z,9.30
2022-11-16T18:55:27.676Z,9.30
2022-11-16T18:57:54.566Z,9.30
2022-11-16T19:00:21.697Z,9.20
2022-11-16T19:02:48.686Z,9.20
2022-11-16T19:05:15.762Z,9.20
2022-11-16T19:07:42.712Z,9.20
2022-11-16T19:10:10.041Z,9.20
2022-11-16T19:12:36.919Z,9.20
2022-11-16T19:15:04.213Z,9.20
2022-11-16T19:17:31.185Z,9.20
2022-11-16T19:19:58.100Z,9.20
2022-11-16T19:22:24.985Z,9.20
2022-11-16T19:24:52.004Z,9.20
2022-11-16T19:27:18.968Z,9.10
2022-11-16T19:29:45.940Z,9.10
2022-11-16T19:32:12.946Z,9.10
2022-11-16T19:34:39.960Z,9.10
2022-11-16T19:37:06.972Z,9.10
2022-11-16T19:39:34.108Z,9.10
2022-11-16T19:42:01.043Z,9.10
2022-11-16T19:44:28.056Z,9.00
2022-11-16T19:46:56.835Z,9.00
2022-11-16T19:49:24.272Z,9.00
2022-11-16T19:51:51.806Z,9.00
2022-11-16T19:54:18.780Z,8.90
2022-11-16T19:56:49.347Z,8.90
2022-11-16T19:59:19.044Z,8.90
2022-11-16T20:01:46.110Z,8.90
2022-11-16T20:04:14.184Z,8.90
2022-11-16T20:06:41.236Z,8.80
2022-11-16T20:09:11.317Z,8.80
2022-11-16T20:11:40.503Z,8.80
2022-11-16T20:14:10.254Z,8.90
2022-11-16T20:16:42.178Z,8.90
2022-11-16T20:19:10.198Z,9.00
2022-11-16T20:21:42.765Z,9.00
2022-11-16T20:24:12.944Z,9.10
2022-11-16T20:26:45.931Z,9.10
2022-11-16T20:29:14.365Z,9.20
2022-11-16T20:31:42.999Z,9.20
2022-11-16T20:34:14.144Z,9.20
2022-11-16T20:36:43.616Z,9.20
2022-11-16T20:39:15.714Z,9.20
2022-11-16T20:41:44.017Z,9.20
2022-11-16T20:44:18.208Z,9.20
2022-11-16T20:46:45.472Z,9.20
2022-11-16T20:49:13.068Z,9.20
2022-11-16T20:51:40.219Z,9.20
2022-11-16T20:54:07.227Z,9.20
2022-11-16T20:56:34.341Z,9.20
2022-11-16T20:59:01.617Z,9.20
2022-11-16T21:01:31.308Z,9.20
2022-11-16T21:04:00.349Z,9.20
2022-11-16T21:06:27.897Z,9.30
2022-11-16T21:08:55.108Z,9.30
2022-11-16T21:11:23.131Z,9.30
2022-11-16T21:14:08.729Z,9.30
2022-11-16T21:16:36.249Z,9.30
2022-11-16T21:19:03.363Z,9.40
2022-11-16T21:21:30.733Z,9.40
2022-11-16T21:23:57.656Z,9.40
2022-11-16T21:26:28.915Z,9.40
2022-11-16T21:28:56.733Z,9.40
2022-11-16T21:31:26.654Z,9.50
2022-11-16T21:33:54.510Z,9.50
2022-11-16T21:36:24.292Z,9.60
2022-11-16T21:38:52.040Z,9.70
2022-11-16T21:41:21.630Z,9.70
2022-11-16T21:43:48.830Z,9.70
2022-11-16T21:46:24.791Z,9.70
2022-11-16T21:48:53.747Z,9.80
2022-11-16T21:51:22.701Z,9.80
2022-11-16T21:53:49.597Z,9.90
2022-11-16T21:56:20.699Z,9.80
2022-11-16T21:58:49.884Z,9.90
2022-11-16T22:01:16.948Z,9.90
2022-11-16T22:03:44.712Z,9.90
2022-11-16T22:06:33.024Z,10.00
2022-11-16T22:09:00.359Z,10.00
2022-11-16T22:11:27.392Z,10.00
2022-11-16T22:13:54.348Z,10.00
2022-11-16T22:16:23.257Z,10.00
2022-11-16T22:18:50.914Z,10.00
2022-11-16T22:21:17.838Z,10.00
2022-11-16T22:23:44.778Z,9.90
2022-11-16T22:26:13.186Z,9.90
2022-11-16T22:28:40.102Z,9.90
2022-11-16T22:31:11.071Z,9.90
2022-11-16T22:33:38.620Z,9.90
2022-11-16T22:36:09.100Z,9.90
2022-11-16T22:38:36.396Z,9.90
2022-11-16T22:41:04.101Z,9.90
2022-11-16T22:43:31.583Z,9.90
2022-11-16T22:45:59.180Z,9.90
2022-11-16T22:48:33.575Z,9.90
2022-11-16T22:51:23.633Z,9.90
2022-11-16T22:53:58.688Z,9.90
2022-11-16T22:56:26.442Z,10.00
2022-11-16T22:58:53.783Z,10.00
2022-11-16T23:01:21.401Z,10.10
2022-11-16T23:03:48.728Z,10.10
2022-11-16T23:06:15.682Z,10.20
2022-11-16T23:08:42.691Z,10.20
2022-11-16T23:11:34.257Z,10.20
2022-11-16T23:14:20.691Z,10.20
2022-11-16T23:16:47.938Z,10.30
2022-11-16T23:19:35.454Z,10.30
2022-11-16T23:22:21.475Z,10.30
2022-11-16T23:25:06.676Z,10.40
2022-11-16T23:27:54.908Z,10.40
2022-11-16T23:30:22.826Z,10.40
2022-11-16T23:32:49.782Z,10.40
2022-11-16T23:35:17.121Z,10.40
2022-11-16T23:38:10.110Z,10.40
2022-11-16T23:40:39.179Z,10.40
2022-11-16T23:43:28.606Z,10.50
2022-11-16T23:45:55.574Z,10.50
2022-11-16T23:48:22.407Z,10.50
2022-11-16T23:50:49.239Z,10.50
2022-11-16T23:53:16.127Z,10.50
2022-11-16T23:55:42.973Z,10.50
2022-11-16T23:58:13.518Z,10.50
